sensor_id;sensor_type;location;lat;lon;timestamp;P1;durP1;ratioP1;P2;durP2;ratioP2
25509;SDS011;13413;52.336;21.200;2023-09-19T00:38:26;15.80;;;13.00;;
25509;SDS011;13413;52.336;21.200;2023-09-19T00:41:19;14.80;;;13.30;;
25509;SDS011;13413;52.336;21.200;2023-09-19T00:44:11;14.20;;;12.80;;
25509;SDS011;13413;52.336;21.200;2023-09-19T00:47:04;16.40;;;13.70;;
25509;SDS011;13413;52.336;21.200;2023-09-19T00:49:56;15.00;;;13.50;;
25509;SDS011;13413;52.336;21.200;2023-09-19T00:52:49;16.00;;;13.10;;
25509;SDS011;13413;52.336;21.200;2023-09-19T00:55:45;14.50;;;13.10;;
25509;SDS011;13413;52.336;21.200;2023-09-19T00:58:37;15.60;;;13.90;;
25509;SDS011;13413;52.336;21.200;2023-09-19T01:01:31;15.50;;;13.90;;
25509;SDS011;13413;52.336;21.200;2023-09-19T01:04:23;16.90;;;13.80;;
25509;SDS011;13413;52.336;21.200;2023-09-19T01:07:16;17.50;;;14.50;;
25509;SDS011;13413;52.336;21.200;2023-09-19T01:10:11;15.80;;;14.00;;
25509;SDS011;13413;52.336;21.200;2023-09-19T02:35:14;19.80;;;16.50;;
25509;SDS011;13413;52.336;21.200;2023-09-19T02:38:06;15.60;;;14.00;;
25509;SDS011;13413;52.336;21.200;2023-09-19T02:40:59;16.30;;;14.50;;
25509;SDS011;13413;52.336;21.200;2023-09-19T02:43:51;19.90;;;14.80;;
25509;SDS011;13413;52.336;21.200;2023-09-19T02:46:44;16.00;;;14.30;;
25509;SDS011;13413;52.336;21.200;2023-09-19T02:49:36;16.90;;;14.10;;
25509;SDS011;13413;52.336;21.200;2023-09-19T02:52:28;21.20;;;15.60;;
25509;SDS011;13413;52.336;21.200;2023-09-19T02:55:21;16.20;;;14.50;;
25509;SDS011;13413;52.336;21.200;2023-09-19T02:58:13;16.20;;;14.50;;
25509;SDS011;13413;52.336;21.200;2023-09-19T03:01:08;17.40;;;14.90;;
25509;SDS011;13413;52.336;21.200;2023-09-19T03:04:01;16.60;;;14.90;;
25509;SDS011;13413;52.336;21.200;2023-09-19T03:06:54;16.40;;;14.10;;
25509;SDS011;13413;52.336;21.200;2023-09-19T03:09:46;18.60;;;15.70;;
25509;SDS011;13413;52.336;21.200;2023-09-19T03:12:39;17.30;;;15.20;;
25509;SDS011;13413;52.336;21.200;2023-09-19T03:15:32;16.10;;;14.40;;
25509;SDS011;13413;52.336;21.200;2023-09-19T03:18:25;17.00;;;15.20;;
25509;SDS011;13413;52.336;21.200;2023-09-19T03:21:17;16.60;;;14.80;;
25509;SDS011;13413;52.336;21.200;2023-09-19T03:24:10;17.10;;;15.40;;
25509;SDS011;13413;52.336;21.200;2023-09-19T03:27:03;16.90;;;14.70;;
25509;SDS011;13413;52.336;21.200;2023-09-19T03:29:56;17.10;;;15.30;;
25509;SDS011;13413;52.336;21.200;2023-09-19T03:32:48;15.70;;;14.10;;
25509;SDS011;13413;52.336;21.200;2023-09-19T03:35:41;16.00;;;14.20;;
25509;SDS011;13413;52.336;21.200;2023-09-19T03:38:33;16.80;;;14.90;;
25509;SDS011;13413;52.336;21.200;2023-09-19T03:41:26;16.40;;;14.70;;
25509;SDS011;13413;52.336;21.200;2023-09-19T03:44:18;17.30;;;15.60;;
25509;SDS011;13413;52.336;21.200;2023-09-19T03:47:10;17.00;;;15.00;;
25509;SDS011;13413;52.336;21.200;2023-09-19T03:50:02;19.20;;;15.20;;
25509;SDS011;13413;52.336;21.200;2023-09-19T03:52:56;16.90;;;15.20;;
25509;SDS011;13413;52.336;21.200;2023-09-19T03:55:49;16.30;;;14.70;;
25509;SDS011;13413;52.336;21.200;2023-09-19T03:58:42;16.90;;;14.80;;
25509;SDS011;13413;52.336;21.200;2023-09-19T04:01:35;16.50;;;14.90;;
25509;SDS011;13413;52.336;21.200;2023-09-19T04:04:28;22.30;;;15.10;;
25509;SDS011;13413;52.336;21.200;2023-09-19T04:07:21;20.10;;;15.70;;
25509;SDS011;13413;52.336;21.200;2023-09-19T04:10:13;20.20;;;14.90;;
25509;SDS011;13413;52.336;21.200;2023-09-19T04:13:06;15.70;;;14.00;;
25509;SDS011;13413;52.336;21.200;2023-09-19T04:15:58;18.10;;;14.20;;
25509;SDS011;13413;52.336;21.200;2023-09-19T06:27:25;17.00;;;14.00;;
25509;SDS011;13413;52.336;21.200;2023-09-19T06:30:19;14.70;;;12.70;;
25509;SDS011;13413;52.336;21.200;2023-09-19T06:33:13;18.10;;;13.30;;
25509;SDS011;13413;52.336;21.200;2023-09-19T06:36:08;16.40;;;12.90;;
25509;SDS011;13413;52.336;21.200;2023-09-19T06:39:01;16.70;;;13.60;;
25509;SDS011;13413;52.336;21.200;2023-09-19T06:41:55;22.70;;;15.20;;
25509;SDS011;13413;52.336;21.200;2023-09-19T06:44:49;17.10;;;14.30;;
25509;SDS011;13413;52.336;21.200;2023-09-19T06:47:43;18.50;;;14.50;;
25509;SDS011;13413;52.336;21.200;2023-09-19T06:50:37;15.50;;;13.50;;
25509;SDS011;13413;52.336;21.200;2023-09-19T06:53:31;19.00;;;14.10;;
25509;SDS011;13413;52.336;21.200;2023-09-19T06:56:25;19.10;;;14.50;;
25509;SDS011;13413;52.336;21.200;2023-09-19T06:59:19;15.80;;;12.70;;
25509;SDS011;13413;52.336;21.200;2023-09-19T07:02:13;16.10;;;13.00;;
25509;SDS011;13413;52.336;21.200;2023-09-19T07:05:07;16.50;;;14.20;;
25509;SDS011;13413;52.336;21.200;2023-09-19T07:08:01;15.00;;;13.00;;
25509;SDS011;13413;52.336;21.200;2023-09-19T07:10:56;21.90;;;13.00;;
25509;SDS011;13413;52.336;21.200;2023-09-19T07:13:49;16.70;;;14.00;;
25509;SDS011;13413;52.336;21.200;2023-09-19T07:16:43;17.10;;;13.40;;
25509;SDS011;13413;52.336;21.200;2023-09-19T07:19:37;15.40;;;13.70;;
25509;SDS011;13413;52.336;21.200;2023-09-19T07:22:30;18.90;;;13.30;;
25509;SDS011;13413;52.336;21.200;2023-09-19T07:25:24;17.40;;;14.00;;
25509;SDS011;13413;52.336;21.200;2023-09-19T07:28:18;16.80;;;13.80;;
25509;SDS011;13413;52.336;21.200;2023-09-19T07:31:12;17.50;;;14.20;;
25509;SDS011;13413;52.336;21.200;2023-09-19T07:34:06;18.80;;;14.70;;
25509;SDS011;13413;52.336;21.200;2023-09-19T07:37:00;18.90;;;13.80;;
25509;SDS011;13413;52.336;21.200;2023-09-19T07:39:54;14.80;;;13.20;;
25509;SDS011;13413;52.336;21.200;2023-09-19T07:42:48;17.40;;;13.40;;
25509;SDS011;13413;52.336;21.200;2023-09-19T07:45:42;22.30;;;15.60;;
25509;SDS011;13413;52.336;21.200;2023-09-19T07:48:36;22.90;;;14.60;;
25509;SDS011;13413;52.336;21.200;2023-09-19T07:51:30;20.80;;;14.60;;
25509;SDS011;13413;52.336;21.200;2023-09-19T07:54:24;21.00;;;15.10;;
25509;SDS011;13413;52.336;21.200;2023-09-19T07:57:18;18.10;;;16.00;;
25509;SDS011;13413;52.336;21.200;2023-09-19T08:00:13;18.20;;;15.50;;
25509;SDS011;13413;52.336;21.200;2023-09-19T08:03:07;19.10;;;16.00;;
25509;SDS011;13413;52.336;21.200;2023-09-19T08:06:01;18.20;;;16.20;;
25509;SDS011;13413;52.336;21.200;2023-09-19T08:08:55;23.80;;;16.30;;
25509;SDS011;13413;52.336;21.200;2023-09-19T08:11:49;18.90;;;16.10;;
25509;SDS011;13413;52.336;21.200;2023-09-19T08:14:43;18.60;;;15.90;;
25509;SDS011;13413;52.336;21.200;2023-09-19T08:17:37;18.70;;;16.70;;
25509;SDS011;13413;52.336;21.200;2023-09-19T08:20:31;18.30;;;16.50;;
25509;SDS011;13413;52.336;21.200;2023-09-19T08:23:24;25.60;;;17.20;;
25509;SDS011;13413;52.336;21.200;2023-09-19T08:26:18;18.80;;;16.80;;
25509;SDS011;13413;52.336;21.200;2023-09-19T08:29:12;21.00;;;16.30;;
25509;SDS011;13413;52.336;21.200;2023-09-19T08:32:06;20.00;;;17.20;;
25509;SDS011;13413;52.336;21.200;2023-09-19T08:35:00;19.10;;;16.20;;
25509;SDS011;13413;52.336;21.200;2023-09-19T10:40:55;16.40;;;13.90;;
25509;SDS011;13413;52.336;21.200;2023-09-19T10:43:52;18.10;;;13.50;;
25509;SDS011;13413;52.336;21.200;2023-09-19T10:47:11;14.50;;;12.40;;
25509;SDS011;13413;52.336;21.200;2023-09-19T10:50:07;13.00;;;11.70;;
25509;SDS011;13413;52.336;21.200;2023-09-19T13:17:59;15.40;;;9.10;;
25509;SDS011;13413;52.336;21.200;2023-09-19T13:21:06;10.90;;;9.40;;
25509;SDS011;13413;52.336;21.200;2023-09-19T13:27:12;11.90;;;10.40;;
25509;SDS011;13413;52.336;21.200;2023-09-19T13:30:07;12.00;;;10.10;;
25509;SDS011;13413;52.336;21.200;2023-09-19T13:33:06;13.30;;;10.80;;
25509;SDS011;13413;52.336;21.200;2023-09-19T13:36:01;20.90;;;12.50;;
25509;SDS011;13413;52.336;21.200;2023-09-19T13:38:55;12.20;;;11.00;;
25509;SDS011;13413;52.336;21.200;2023-09-19T13:41:49;13.10;;;10.30;;
25509;SDS011;13413;52.336;21.200;2023-09-19T13:44:43;15.70;;;11.40;;
25509;SDS011;13413;52.336;21.200;2023-09-19T13:47:37;13.70;;;12.10;;
25509;SDS011;13413;52.336;21.200;2023-09-19T13:50:31;12.70;;;11.40;;
25509;SDS011;13413;52.336;21.200;2023-09-19T13:56:18;12.90;;;11.60;;
25509;SDS011;13413;52.336;21.200;2023-09-19T13:59:12;12.20;;;10.90;;
25509;SDS011;13413;52.336;21.200;2023-09-19T14:02:06;12.20;;;10.80;;
25509;SDS011;13413;52.336;21.200;2023-09-19T14:05:00;13.00;;;10.50;;
25509;SDS011;13413;52.336;21.200;2023-09-19T14:07:54;14.80;;;11.30;;
25509;SDS011;13413;52.336;21.200;2023-09-19T14:10:48;16.80;;;11.00;;
25509;SDS011;13413;52.336;21.200;2023-09-19T14:13:42;18.30;;;11.30;;
25509;SDS011;13413;52.336;21.200;2023-09-19T14:16:36;13.90;;;10.60;;
25509;SDS011;13413;52.336;21.200;2023-09-19T14:19:30;14.20;;;11.10;;
25509;SDS011;13413;52.336;21.200;2023-09-19T14:22:24;13.40;;;10.80;;
25509;SDS011;13413;52.336;21.200;2023-09-19T14:25:18;15.10;;;11.80;;
25509;SDS011;13413;52.336;21.200;2023-09-19T14:28:12;14.00;;;12.10;;
25509;SDS011;13413;52.336;21.200;2023-09-19T14:31:07;18.30;;;12.50;;
25509;SDS011;13413;52.336;21.200;2023-09-19T14:34:01;17.10;;;12.50;;
25509;SDS011;13413;52.336;21.200;2023-09-19T14:36:55;18.10;;;13.50;;
25509;SDS011;13413;52.336;21.200;2023-09-19T14:39:49;16.60;;;13.20;;
25509;SDS011;13413;52.336;21.200;2023-09-19T14:42:43;20.60;;;14.10;;
25509;SDS011;13413;52.336;21.200;2023-09-19T14:45:37;16.00;;;13.00;;
25509;SDS011;13413;52.336;21.200;2023-09-19T14:48:31;18.10;;;13.30;;
25509;SDS011;13413;52.336;21.200;2023-09-19T14:51:25;14.70;;;12.30;;
25509;SDS011;13413;52.336;21.200;2023-09-19T14:54:21;17.90;;;12.30;;
25509;SDS011;13413;52.336;21.200;2023-09-19T14:57:15;17.10;;;14.20;;
25509;SDS011;13413;52.336;21.200;2023-09-19T15:00:10;18.40;;;13.60;;
25509;SDS011;13413;52.336;21.200;2023-09-19T15:03:05;20.20;;;12.70;;
25509;SDS011;13413;52.336;21.200;2023-09-19T15:06:03;13.10;;;11.90;;
25509;SDS011;13413;52.336;21.200;2023-09-19T15:08:57;16.10;;;13.70;;
25509;SDS011;13413;52.336;21.200;2023-09-19T15:11:51;14.40;;;12.50;;
25509;SDS011;13413;52.336;21.200;2023-09-19T15:14:45;16.80;;;12.80;;
25509;SDS011;13413;52.336;21.200;2023-09-19T15:17:39;15.20;;;12.20;;
25509;SDS011;13413;52.336;21.200;2023-09-19T15:20:34;14.40;;;11.30;;
25509;SDS011;13413;52.336;21.200;2023-09-19T15:23:27;15.50;;;11.50;;
25509;SDS011;13413;52.336;21.200;2023-09-19T15:26:21;13.90;;;11.10;;
25509;SDS011;13413;52.336;21.200;2023-09-19T15:29:15;13.10;;;11.50;;
25509;SDS011;13413;52.336;21.200;2023-09-19T15:32:09;16.20;;;12.10;;
25509;SDS011;13413;52.336;21.200;2023-09-19T17:38:12;9.50;;;8.50;;
25509;SDS011;13413;52.336;21.200;2023-09-19T17:41:05;9.50;;;8.60;;
25509;SDS011;13413;52.336;21.200;2023-09-19T17:43:58;10.80;;;8.50;;
25509;SDS011;13413;52.336;21.200;2023-09-19T17:46:51;9.90;;;8.20;;
25509;SDS011;13413;52.336;21.200;2023-09-19T17:49:44;9.60;;;8.30;;
25509;SDS011;13413;52.336;21.200;2023-09-19T17:52:36;9.70;;;8.50;;
25509;SDS011;13413;52.336;21.200;2023-09-19T17:55:28;11.90;;;9.20;;
25509;SDS011;13413;52.336;21.200;2023-09-19T17:58:22;12.80;;;8.90;;
25509;SDS011;13413;52.336;21.200;2023-09-19T18:01:15;9.60;;;8.60;;
25509;SDS011;13413;52.336;21.200;2023-09-19T18:04:14;8.40;;;7.70;;
25509;SDS011;13413;52.336;21.200;2023-09-19T18:07:14;10.50;;;7.70;;
25509;SDS011;13413;52.336;21.200;2023-09-19T19:21:12;9.60;;;6.60;;
25509;SDS011;13413;52.336;21.200;2023-09-19T19:24:06;11.80;;;7.10;;
25509;SDS011;13413;52.336;21.200;2023-09-19T19:26:59;10.90;;;6.80;;
25509;SDS011;13413;52.336;21.200;2023-09-19T19:29:54;10.80;;;6.00;;
25509;SDS011;13413;52.336;21.200;2023-09-19T19:32:48;11.30;;;7.00;;
25509;SDS011;13413;52.336;21.200;2023-09-19T19:35:42;12.20;;;7.50;;
25509;SDS011;13413;52.336;21.200;2023-09-19T19:38:36;10.00;;;8.20;;
25509;SDS011;13413;52.336;21.200;2023-09-19T19:41:31;11.00;;;7.70;;
25509;SDS011;13413;52.336;21.200;2023-09-19T19:44:27;13.90;;;7.90;;
25509;SDS011;13413;52.336;21.200;2023-09-19T19:47:21;14.70;;;7.20;;
25509;SDS011;13413;52.336;21.200;2023-09-19T19:50:15;13.30;;;7.50;;
25509;SDS011;13413;52.336;21.200;2023-09-19T19:53:09;11.90;;;7.50;;
25509;SDS011;13413;52.336;21.200;2023-09-19T19:56:03;9.60;;;7.30;;
25509;SDS011;13413;52.336;21.200;2023-09-19T20:01:49;9.60;;;6.60;;
25509;SDS011;13413;52.336;21.200;2023-09-19T20:04:44;11.90;;;7.30;;
25509;SDS011;13413;52.336;21.200;2023-09-19T20:07:38;9.30;;;7.00;;
25509;SDS011;13413;52.336;21.200;2023-09-19T20:10:32;10.20;;;6.50;;
25509;SDS011;13413;52.336;21.200;2023-09-19T20:13:26;7.60;;;6.20;;
25509;SDS011;13413;52.336;21.200;2023-09-19T20:16:20;9.00;;;5.40;;
25509;SDS011;13413;52.336;21.200;2023-09-19T20:19:14;7.90;;;5.40;;
25509;SDS011;13413;52.336;21.200;2023-09-19T21:43:27;8.20;;;6.10;;
25509;SDS011;13413;52.336;21.200;2023-09-19T21:46:20;7.00;;;5.80;;
25509;SDS011;13413;52.336;21.200;2023-09-19T21:49:15;9.20;;;5.60;;
25509;SDS011;13413;52.336;21.200;2023-09-19T21:52:09;12.30;;;6.00;;
25509;SDS011;13413;52.336;21.200;2023-09-19T21:55:03;9.50;;;6.20;;
25509;SDS011;13413;52.336;21.200;2023-09-19T21:57:58;8.10;;;6.00;;
25509;SDS011;13413;52.336;21.200;2023-09-19T22:00:53;7.40;;;5.20;;
25509;SDS011;13413;52.336;21.200;2023-09-19T22:03:46;8.70;;;6.50;;
25509;SDS011;13413;52.336;21.200;2023-09-19T22:06:40;9.30;;;6.30;;
25509;SDS011;13413;52.336;21.200;2023-09-19T22:09:34;9.40;;;6.10;;
25509;SDS011;13413;52.336;21.200;2023-09-19T22:12:28;10.90;;;7.10;;
25509;SDS011;13413;52.336;21.200;2023-09-19T22:15:29;7.70;;;5.90;;
25509;SDS011;13413;52.336;21.200;2023-09-19T22:18:25;10.10;;;6.20;;
25509;SDS011;13413;52.336;21.200;2023-09-19T22:21:19;9.40;;;6.40;;
25509;SDS011;13413;52.336;21.200;2023-09-19T22:24:13;7.20;;;5.70;;
25509;SDS011;13413;52.336;21.200;2023-09-19T22:27:07;9.50;;;5.90;;
25509;SDS011;13413;52.336;21.200;2023-09-19T22:30:05;9.20;;;6.60;;
25509;SDS011;13413;52.336;21.200;2023-09-19T22:33:00;11.30;;;6.30;;
25509;SDS011;13413;52.336;21.200;2023-09-19T22:35:58;6.80;;;6.20;;
25509;SDS011;13413;52.336;21.200;2023-09-19T22:38:52;10.00;;;6.50;;
25509;SDS011;13413;52.336;21.200;2023-09-19T22:41:45;10.60;;;7.00;;
25509;SDS011;13413;52.336;21.200;2023-09-19T22:44:40;8.70;;;5.80;;
25509;SDS011;13413;52.336;21.200;2023-09-19T22:47:33;8.10;;;5.30;;
25509;SDS011;13413;52.336;21.200;2023-09-19T22:50:34;7.60;;;5.20;;
25509;SDS011;13413;52.336;21.200;2023-09-19T22:53:28;6.50;;;5.90;;
25509;SDS011;13413;52.336;21.200;2023-09-19T22:56:21;6.30;;;5.70;;
25509;SDS011;13413;52.336;21.200;2023-09-19T22:59:16;11.10;;;5.40;;
25509;SDS011;13413;52.336;21.200;2023-09-19T23:02:09;6.90;;;5.90;;
25509;SDS011;13413;52.336;21.200;2023-09-19T23:05:03;9.10;;;5.80;;
25509;SDS011;13413;52.336;21.200;2023-09-19T23:07:57;8.30;;;5.40;;
25509;SDS011;13413;52.336;21.200;2023-09-19T23:10:52;7.80;;;6.20;;
25509;SDS011;13413;52.336;21.200;2023-09-19T23:13:46;11.00;;;6.40;;
25509;SDS011;13413;52.336;21.200;2023-09-19T23:16:39;13.10;;;6.20;;
25509;SDS011;13413;52.336;21.200;2023-09-19T23:19:33;6.60;;;5.70;;
25509;SDS011;13413;52.336;21.200;2023-09-19T23:22:26;10.30;;;6.50;;
25509;SDS011;13413;52.336;21.200;2023-09-19T23:25:22;8.00;;;6.30;;
25509;SDS011;13413;52.336;21.200;2023-09-19T23:28:17;11.00;;;6.40;;
25509;SDS011;13413;52.336;21.200;2023-09-19T23:31:11;9.10;;;6.40;;
25509;SDS011;13413;52.336;21.200;2023-09-19T23:34:05;6.60;;;6.00;;
25509;SDS011;13413;52.336;21.200;2023-09-19T23:36:58;8.90;;;6.60;;
25509;SDS011;13413;52.336;21.200;2023-09-19T23:39:55;8.50;;;6.30;;
25509;SDS011;13413;52.336;21.200;2023-09-19T23:42:49;12.60;;;6.10;;
25509;SDS011;13413;52.336;21.200;2023-09-19T23:45:43;7.60;;;6.10;;
25509;SDS011;13413;52.336;21.200;2023-09-19T23:48:37;7.10;;;5.70;;
25509;SDS011;13413;52.336;21.200;2023-09-19T23:51:30;9.50;;;6.50;;
25509;SDS011;13413;52.336;21.200;2023-09-19T23:54:24;7.60;;;5.40;;
